Time;durP1;ratioP1;P1;durP2;ratioP2;P2;SDS_P1;SDS_P2;PMS_P1;PMS_P2;Temp;Humidity;BMP_temperature;BMP_pressure;BME280_temperature;BME280_humidity;BME280_pressure;Samples;Min_cycle;Max_cycle;Signal;HPM_P1;HPM_P2
2022/10/05 00:00:22;;;;;;;;;;;;;;;12.17;63.62;101970.17;1677629;85;26036;-58
2022/10/05 00:02:53;;;;;;;;;;;;;;;12.11;63.51;101974.66;1676670;85;25775;-58
2022/10/05 00:05:31;;;;;;;;;;;;;;;12.07;63.38;101976.73;1676915;85;28503;-58
2022/10/05 00:08:13;;;;;;;;;;;;;;;12.05;63.76;101979.55;1676553;85;25772;-58
2022/10/05 00:10:41;;;;;;;;;;;;;;;12.01;64.26;101983.45;1676729;85;25804;-59
2022/10/05 00:13:19;;;;;;;;;;;;;;;11.99;63.97;101981.84;1676389;85;26100;-59
2022/10/05 00:15:47;;;;;;;;;;;;;;;12.02;64.15;101987.02;1676746;85;25721;-59
2022/10/05 00:18:15;;;;;;;;;;;;;;;12.06;63.67;101981.75;1676522;85;27556;-59
2022/10/05 00:20:42;;;;;;;;;;;;;;;12.09;64.24;101978.83;1676636;85;25742;-59
2022/10/05 00:23:12;;;;;;;;;;;;;;;12.05;62.79;101981.41;1676473;85;25891;-59
2022/10/05 00:25:39;;;;;;;;;;;;;;;12.03;63.52;101989.59;1681894;85;26572;-59
2022/10/05 00:28:09;;;;;;;;;;;;;;;11.97;63.94;101986.02;1682132;85;25644;-59
2022/10/05 00:30:35;;;;;;;;;;;;;;;11.96;63.85;101986.11;1683266;84;29631;-59
2022/10/05 00:33:02;;;;;;;;;;;;;;;11.95;64.28;101995.17;1680076;85;25744;-58
2022/10/05 00:35:29;;;;;;;;;;;;;;;11.93;64.34;101998.47;1680796;85;25704;-58
2022/10/05 00:37:56;;;;;;;;;;;;;;;11.97;64.33;101995.45;1680654;84;26115;-59
2022/10/05 00:40:48;;;;;;;;;;;;;;;12.01;64.23;101999.63;1682555;84;25769;-59
2022/10/05 00:43:47;;;;;;;;;;;;;;;12.05;64.15;102004.33;1682361;85;27484;-59
2022/10/05 00:46:20;;;;;;;;;;;;;;;12.04;63.99;102010.70;1682493;84;25792;-58
2022/10/05 00:49:03;;;;;;;;;;;;;;;12.02;64.08;102006.75;1652577;85;26680;-59
2022/10/05 00:51:31;;;;;;;;;;;;;;;12.06;63.77;102008.72;1675334;85;26987;-59
2022/10/05 00:54:07;;;;;;;;;;;;;;;12.05;63.73;101998.94;1676911;85;25757;-59
2022/10/05 00:56:49;;;;;;;;;;;;;;;12.04;63.54;102005.30;1680623;85;27676;-59
2022/10/05 00:59:45;;;;;;;;;;;;;;;12.05;63.38;102005.68;1680627;85;25712;-59
2022/10/05 01:02:33;;;;;;;;;;;;;;;12.05;63.25;102010.57;1680550;85;25813;-59
2022/10/05 01:05:20;;;;;;;;;;;;;;;12.05;63.22;102015.12;1680648;85;26977;-59
2022/10/05 01:08:08;;;;;;;;;;;;;;;12.05;63.17;102017.31;1680596;85;25780;-58
2022/10/05 01:10:44;;;;;;;;;;;;;;;12.12;63.33;102015.49;1680483;85;29667;-59
2022/10/05 01:13:17;;;;;;;;;;;;;;;12.09;63.03;102019.80;1678945;85;25912;-59
2022/10/05 01:16:01;;;;;;;;;;;;;;;12.02;63.02;102024.78;1644736;84;25772;-60
2022/10/05 01:18:37;;;;;;;;;;;;;;;12.00;63.19;102028.95;1680443;85;26113;-59
2022/10/05 01:21:09;;;;;;;;;;;;;;;11.96;63.32;102028.76;1680858;85;26052;-59
2022/10/05 01:24:12;;;;;;;;;;;;;;;11.90;63.44;102034.11;1676073;85;27538;-59
2022/10/05 01:27:02;;;;;;;;;;;;;;;11.87;63.57;102036.19;1651284;87;25799;-59
2022/10/05 01:29:41;;;;;;;;;;;;;;;11.84;63.39;102034.58;1653219;86;25664;-58
2022/10/05 01:32:14;;;;;;;;;;;;;;;11.83;63.71;102036.05;1690308;84;26744;-59
2022/10/05 01:34:47;;;;;;;;;;;;;;;11.82;63.49;102039.72;1668894;84;25776;-60
2022/10/05 01:37:18;;;;;;;;;;;;;;;11.78;63.81;102043.60;1674985;85;27638;-60
2022/10/05 01:40:09;;;;;;;;;;;;;;;11.74;63.91;102038.92;1697108;84;26450;-60
2022/10/05 01:42:57;;;;;;;;;;;;;;;11.73;63.81;102045.28;1703092;83;25775;-58
2022/10/05 01:45:55;;;;;;;;;;;;;;;11.67;64.10;102042.55;1705725;83;26270;-59
2022/10/05 01:48:31;;;;;;;;;;;;;;;11.66;63.97;102056.15;1701269;84;25692;-59
2022/10/05 01:51:07;;;;;;;;;;;;;;;11.66;64.01;102061.55;1701107;84;27464;-59
2022/10/05 01:53:49;;;;;;;;;;;;;;;11.65;63.79;102061.16;1700885;84;26309;-59
2022/10/05 01:56:25;;;;;;;;;;;;;;;11.65;64.06;102063.86;1700480;84;25734;-59
2022/10/05 01:59:02;;;;;;;;;;;;;;;11.67;63.80;102068.66;1683781;84;26266;-59
2022/10/05 02:01:48;;;;;;;;;;;;;;;11.73;63.52;102068.20;1680203;85;25502;-59
2022/10/05 02:04:18;;;;;;;;;;;;;;;11.79;63.64;102069.09;1680447;85;27554;-59
2022/10/05 02:06:47;;;;;;;;;;;;;;;11.85;63.42;102070.48;1675393;84;25505;-60
2022/10/05 02:09:23;;;;;;;;;;;;;;;11.89;63.53;102066.09;1674340;85;25797;-60
2022/10/05 02:12:02;;;;;;;;;;;;;;;11.95;63.37;102069.33;1674511;84;27322;-59
2022/10/05 02:14:45;;;;;;;;;;;;;;;12.04;63.37;102071.38;1670007;85;25836;-59
2022/10/05 02:17:19;;;;;;;;;;;;;;;12.13;63.26;102073.87;1674739;85;27526;-58
2022/10/05 02:19:48;;;;;;;;;;;;;;;12.20;63.12;102082.75;1674068;84;25742;-59
2022/10/05 02:22:24;;;;;;;;;;;;;;;12.21;62.80;102084.47;1674555;85;25709;-59
2022/10/05 02:24:57;;;;;;;;;;;;;;;12.24;62.84;102084.72;1676221;85;26044;-59
2022/10/05 02:27:28;;;;;;;;;;;;;;;12.28;62.86;102092.09;1676404;84;25735;-58
2022/10/05 02:29:59;;;;;;;;;;;;;;;12.29;62.84;102091.97;1676257;84;27605;-59
2022/10/05 02:32:29;;;;;;;;;;;;;;;12.32;62.71;102096.30;1677466;85;25756;-59
2022/10/05 02:34:58;;;;;;;;;;;;;;;12.32;62.58;102099.00;1687118;85;25673;-59
2022/10/05 02:37:37;;;;;;;;;;;;;;;12.34;62.53;102104.65;1676967;85;26151;-59
2022/10/05 02:40:16;;;;;;;;;;;;;;;12.35;62.27;102101.45;1698915;84;25793;-59
2022/10/05 02:43:02;;;;;;;;;;;;;;;12.35;62.35;102105.02;1667383;83;27511;-59
2022/10/05 02:46:05;;;;;;;;;;;;;;;12.34;62.31;102108.70;1701155;84;25771;-58
2022/10/05 02:48:42;;;;;;;;;;;;;;;12.29;62.29;102108.16;1701095;84;25713;-59
2022/10/05 02:51:34;;;;;;;;;;;;;;;12.16;62.62;102112.27;1701503;84;27284;-59
2022/10/05 02:54:37;;;;;;;;;;;;;;;12.08;62.59;102105.23;1701184;84;25735;-59
2022/10/05 02:57:25;;;;;;;;;;;;;;;12.07;62.54;102106.20;1703112;83;27598;-59
2022/10/05 03:00:08;;;;;;;;;;;;;;;12.05;62.61;102107.67;1705738;83;25905;-59
2022/10/05 03:02:57;;;;;;;;;;;;;;;12.01;62.41;102118.80;1701143;84;25728;-59
2022/10/05 03:05:58;;;;;;;;;;;;;;;12.00;62.46;102112.55;1701209;84;27177;-59
2022/10/05 03:08:34;;;;;;;;;;;;;;;11.98;62.45;102119.02;1701262;84;26022;-59
2022/10/05 03:11:08;;;;;;;;;;;;;;;11.91;62.49;102117.23;1685317;84;27653;-59
2022/10/05 03:13:47;;;;;;;;;;;;;;;11.85;62.68;102123.94;1701600;83;26454;-59
2022/10/05 03:16:21;;;;;;;;;;;;;;;11.84;62.59;102128.07;1703161;83;25711;-59
2022/10/05 03:19:11;;;;;;;;;;;;;;;11.80;62.77;102129.28;1708222;84;26108;-59
2022/10/05 03:21:57;;;;;;;;;;;;;;;11.74;63.00;102134.63;1709063;84;25779;-59
2022/10/05 03:24:36;;;;;;;;;;;;;;;11.68;63.04;102139.97;1698076;84;27576;-59
2022/10/05 03:27:16;;;;;;;;;;;;;;;11.67;63.29;102138.73;1682655;85;25765;-60
2022/10/05 03:29:58;;;;;;;;;;;;;;;11.63;63.20;102135.88;1688097;84;25744;-59
2022/10/05 03:32:32;;;;;;;;;;;;;;;11.58;63.29;102137.55;1695422;84;26121;-59
2022/10/05 03:35:03;;;;;;;;;;;;;;;11.53;63.79;102142.42;1682147;85;25724;-59
2022/10/05 03:37:57;;;;;;;;;;;;;;;11.49;63.53;102145.82;1679600;85;27519;-59
2022/10/05 03:40:39;;;;;;;;;;;;;;;11.49;63.77;102143.59;1653050;86;27375;-59
2022/10/05 03:43:22;;;;;;;;;;;;;;;11.48;63.81;102142.74;1653200;86;25815;-59
2022/10/05 03:46:14;;;;;;;;;;;;;;;11.48;63.91;102146.78;1653277;86;26113;-59
2022/10/05 03:48:57;;;;;;;;;;;;;;;11.47;63.92;102146.91;1653159;86;25800;-59
2022/10/05 03:51:33;;;;;;;;;;;;;;;11.49;63.67;102144.47;1653385;86;27568;-58
2022/10/05 03:54:10;;;;;;;;;;;;;;;11.56;63.71;102143.06;1653012;86;25809;-60
2022/10/05 03:56:49;;;;;;;;;;;;;;;11.62;63.58;102142.23;1647116;86;25847;-60
2022/10/05 03:59:23;;;;;;;;;;;;;;;11.64;63.51;102140.30;1653031;86;26131;-59
2022/10/05 04:02:00;;;;;;;;;;;;;;;11.66;63.52;102142.41;1638617;86;25874;-59
2022/10/05 04:04:34;;;;;;;;;;;;;;;11.74;63.42;102142.72;1653191;86;27494;-58
2022/10/05 04:07:01;;;;;;;;;;;;;;;11.82;63.77;102136.28;1653017;86;25715;-59
2022/10/05 04:09:36;;;;;;;;;;;;;;;11.90;63.62;102143.33;1653168;86;25724;-59
2022/10/05 04:12:25;;;;;;;;;;;;;;;11.90;63.14;102146.02;1653187;86;26150;-59
2022/10/05 04:15:05;;;;;;;;;;;;;;;11.93;63.36;102154.88;1653300;86;25771;-59
2022/10/05 04:17:35;;;;;;;;;;;;;;;11.96;63.43;102158.20;1653686;86;28108;-59
2022/10/05 04:20:06;;;;;;;;;;;;;;;11.96;63.82;102160.05;1653631;86;25811;-59
2022/10/05 04:22:42;;;;;;;;;;;;;;;11.94;64.07;102161.99;1653753;86;25458;-58
2022/10/05 04:25:16;;;;;;;;;;;;;;;11.93;64.02;102173.75;1677605;85;26005;-59
2022/10/05 04:27:46;;;;;;;;;;;;;;;11.89;64.19;102171.27;1662551;85;25722;-59
2022/10/05 04:30:18;;;;;;;;;;;;;;;11.87;63.97;102184.02;1695884;83;27476;-59
2022/10/05 04:32:56;;;;;;;;;;;;;;;11.84;64.18;102184.70;1714187;83;25936;-59
2022/10/05 04:35:49;;;;;;;;;;;;;;;11.81;63.74;102179.55;1714335;83;25916;-59
2022/10/05 04:38:47;;;;;;;;;;;;;;;11.77;64.27;102187.45;1711300;83;26163;-60
2022/10/05 04:41:26;;;;;;;;;;;;;;;11.73;64.12;102186.81;1694170;83;25816;-59
2022/10/05 04:44:21;;;;;;;;;;;;;;;11.68;64.16;102183.09;1677315;85;27508;-59
2022/10/05 04:47:11;;;;;;;;;;;;;;;11.66;64.82;102192.27;1677119;85;25792;-59
2022/10/05 04:49:41;;;;;;;;;;;;;;;11.63;65.11;102199.22;1677190;85;25963;-59
2022/10/05 04:52:18;;;;;;;;;;;;;;;11.55;65.44;102196.58;1676286;85;27327;-59
2022/10/05 04:54:56;;;;;;;;;;;;;;;11.53;65.83;102203.91;1676916;85;25540;-60
2022/10/05 04:57:44;;;;;;;;;;;;;;;11.53;65.91;102198.52;1676305;84;27466;-60
2022/10/05 05:00:25;;;;;;;;;;;;;;;11.57;66.02;102198.69;1676984;85;25888;-59
2022/10/05 05:03:05;;;;;;;;;;;;;;;11.58;65.75;102203.58;1677410;85;25721;-59
2022/10/05 05:05:50;;;;;;;;;;;;;;;11.57;65.52;102202.73;1677365;85;26027;-60
2022/10/05 05:08:36;;;;;;;;;;;;;;;11.60;65.57;102196.26;1677388;85;25520;-59
2022/10/05 05:11:21;;;;;;;;;;;;;;;11.66;65.37;102200.36;1677160;85;27539;-60
2022/10/05 05:14:15;;;;;;;;;;;;;;;11.74;64.87;102196.63;1676598;85;25752;-60
2022/10/05 05:16:45;;;;;;;;;;;;;;;11.84;64.44;102201.75;1622920;87;25849;-59
2022/10/05 05:19:32;;;;;;;;;;;;;;;11.94;64.12;102189.81;1636178;87;26127;-59
2022/10/05 05:22:05;;;;;;;;;;;;;;;12.08;64.09;102198.78;1652381;86;25806;-60
2022/10/05 05:24:54;;;;;;;;;;;;;;;12.18;63.36;102198.50;1678998;85;27678;-60
2022/10/05 05:27:34;;;;;;;;;;;;;;;12.27;62.92;102201.00;1685460;85;25709;-60
2022/10/05 05:30:26;;;;;;;;;;;;;;;12.36;62.71;102209.77;1659115;85;25463;-61
2022/10/05 05:33:09;;;;;;;;;;;;;;;12.47;62.53;102217.06;1680202;85;26150;-60
2022/10/05 05:35:55;;;;;;;;;;;;;;;12.55;62.23;102222.75;1680386;85;25749;-59
2022/10/05 05:38:28;;;;;;;;;;;;;;;12.66;62.00;102214.73;1683850;84;27471;-61
2022/10/05 05:41:14;;;;;;;;;;;;;;;12.79;62.08;102217.37;1698900;83;25784;-61
2022/10/05 05:44:04;;;;;;;;;;;;;;;12.87;61.21;102217.27;1659179;84;25821;-60
2022/10/05 05:46:49;;;;;;;;;;;;;;;12.93;60.95;102219.53;1708977;84;26085;-60
2022/10/05 05:49:21;;;;;;;;;;;;;;;13.00;60.76;102225.69;1708846;83;25763;-60
2022/10/05 05:51:54;;;;;;;;;;;;;;;12.96;59.67;102224.68;1707292;84;27477;-61
2022/10/05 05:54:36;;;;;;;;;;;;;;;12.96;59.78;102223.33;1699224;83;25797;-61
2022/10/05 05:57:19;;;;;;;;;;;;;;;12.99;59.89;102222.64;1699068;84;25699;-60
2022/10/05 06:00:16;;;;;;;;;;;;;;;13.01;59.47;102221.16;1698977;84;26181;-59
2022/10/05 06:03:14;;;;;;;;;;;;;;;13.06;59.29;102223.52;1698922;84;25795;-60
2022/10/05 06:05:56;;;;;;;;;;;;;;;13.10;58.84;102231.27;1698340;84;27490;-61
2022/10/05 06:08:35;;;;;;;;;;;;;;;13.11;58.97;102230.77;1698817;84;25716;-60
2022/10/05 06:11:07;;;;;;;;;;;;;;;13.14;59.08;102234.59;1698073;84;25774;-60
2022/10/05 06:13:37;;;;;;;;;;;;;;;13.23;59.09;102240.64;1683256;83;26327;-60
2022/10/05 06:16:21;;;;;;;;;;;;;;;13.28;58.75;102243.00;1699472;84;25707;-59
2022/10/05 06:18:55;;;;;;;;;;;;;;;13.38;58.76;102248.07;1696852;84;28386;-60
2022/10/05 06:21:31;;;;;;;;;;;;;;;13.52;58.66;102253.79;1695593;84;26448;-59
2022/10/05 06:24:06;;;;;;;;;;;;;;;13.54;58.32;102260.42;1680435;84;25803;-59
2022/10/05 06:26:43;;;;;;;;;;;;;;;13.60;57.74;102266.22;1668514;84;26392;-59
2022/10/05 06:29:13;;;;;;;;;;;;;;;13.66;57.34;102266.23;1668399;84;25745;-58
2022/10/05 06:32:00;;;;;;;;;;;;;;;13.75;57.25;102279.52;1653251;86;28600;-59
2022/10/05 06:34:31;;;;;;;;;;;;;;;13.76;56.47;102277.18;1650544;84;25729;-59
2022/10/05 06:37:01;;;;;;;;;;;;;;;13.80;56.44;102273.27;1662549;85;25877;-59
2022/10/05 06:39:46;;;;;;;;;;;;;;;13.82;56.70;102278.05;1704176;83;26911;-59
2022/10/05 06:42:22;;;;;;;;;;;;;;;13.91;56.71;102285.94;1645519;84;26992;-60
2022/10/05 06:45:00;;;;;;;;;;;;;;;13.91;56.07;102290.00;1674546;83;27534;-61
2022/10/05 06:47:38;;;;;;;;;;;;;;;13.92;56.03;102295.78;1675815;85;25741;-60
2022/10/05 06:50:16;;;;;;;;;;;;;;;13.91;56.36;102296.77;1677632;85;25800;-60
2022/10/05 06:53:26;;;;;;;;;;;;;;;13.97;56.50;102292.21;1677972;85;26167;-60
2022/10/05 06:56:08;;;;;;;;;;;;;;;14.14;56.52;102298.13;1676079;85;25761;-59
2022/10/05 06:58:55;;;;;;;;;;;;;;;14.19;55.62;102298.13;1676176;85;27491;-59
2022/10/05 07:01:30;;;;;;;;;;;;;;;14.25;55.31;102296.27;1675719;85;26388;-59
2022/10/05 07:04:16;;;;;;;;;;;;;;;14.43;55.66;102298.98;1674412;85;26475;-59
2022/10/05 07:06:57;;;;;;;;;;;;;;;14.60;55.86;102298.98;1652659;86;25934;-60
2022/10/05 07:09:36;;;;;;;;;;;;;;;14.76;54.19;102305.37;1697736;83;25804;-59
2022/10/05 07:12:25;;;;;;;;;;;;;;;14.84;53.49;102307.83;1708005;83;27586;-60
2022/10/05 07:14:55;;;;;;;;;;;;;;;14.83;53.36;102309.32;1671662;83;27244;-60
2022/10/05 07:17:31;;;;;;;;;;;;;;;14.94;53.76;102311.13;1672319;84;25799;-61
2022/10/05 07:20:18;;;;;;;;;;;;;;;15.04;53.60;102312.09;1672285;84;26167;-60
2022/10/05 07:23:04;;;;;;;;;;;;;;;15.13;52.82;102310.45;1687329;83;25756;-60
2022/10/05 07:25:37;;;;;;;;;;;;;;;15.23;52.29;102300.55;1680458;84;28374;-59
2022/10/05 07:28:10;;;;;;;;;;;;;;;15.37;52.65;102301.25;1701004;83;25723;-59
2022/10/05 07:30:40;;;;;;;;;;;;;;;15.45;52.30;102306.88;1691871;83;25923;-60
2022/10/05 07:33:23;;;;;;;;;;;;;;;15.54;53.03;102306.58;1669417;85;26116;-59
2022/10/05 07:39:12;;;;;;;;;;;;;;;15.77;52.59;102308.66;1673473;83;27710;-59
2022/10/05 07:41:55;;;;;;;;;;;;;;;15.81;51.77;102310.13;1698716;83;25773;-59
2022/10/05 07:44:29;;;;;;;;;;;;;;;15.86;51.13;102302.98;1673505;85;25854;-59
2022/10/05 07:47:01;;;;;;;;;;;;;;;15.95;50.69;102310.33;1674051;85;26124;-59
2022/10/05 07:49:44;;;;;;;;;;;;;;;16.12;50.28;102307.47;1662096;85;27232;-60
2022/10/05 07:52:18;;;;;;;;;;;;;;;16.14;49.09;102302.77;1685929;83;27528;-60
2022/10/05 07:55:05;;;;;;;;;;;;;;;16.18;48.42;102304.71;1691220;82;25495;-60
2022/10/05 07:57:42;;;;;;;;;;;;;;;16.32;49.10;102306.20;1680702;85;25737;-59
2022/10/05 08:00:15;;;;;;;;;;;;;;;16.39;48.79;102310.97;1674425;85;26081;-59
2022/10/05 08:02:55;;;;;;;;;;;;;;;16.46;49.18;102312.61;1674367;85;25834;-60
2022/10/05 08:05:37;;;;;;;;;;;;;;;16.52;48.68;102322.95;1679737;85;27593;-60
2022/10/05 08:08:19;;;;;;;;;;;;;;;16.65;49.29;102311.83;1676479;85;25743;-61
2022/10/05 08:11:06;;;;;;;;;;;;;;;16.81;48.67;102306.35;1649009;85;25780;-61
2022/10/05 08:13:39;;;;;;;;;;;;;;;17.11;47.51;102304.58;1660221;85;26137;-59
2022/10/05 08:16:19;;;;;;;;;;;;;;;17.23;46.51;102307.50;1664834;85;25846;-59
2022/10/05 08:18:58;;;;;;;;;;;;;;;17.20;45.92;102307.30;1669885;85;27609;-59
2022/10/05 08:21:34;;;;;;;;;;;;;;;17.11;46.13;102308.66;1641542;84;25800;-60
2022/10/05 08:24:16;;;;;;;;;;;;;;;17.22;46.64;102294.91;1658708;85;25734;-60
2022/10/05 08:27:01;;;;;;;;;;;;;;;17.27;46.30;102297.20;1675157;85;26934;-60
2022/10/05 08:29:46;;;;;;;;;;;;;;;17.44;46.94;102292.39;1648705;86;25763;-60
2022/10/05 08:32:28;;;;;;;;;;;;;;;17.56;45.96;102294.48;1677694;84;26906;-60
2022/10/05 08:34:58;;;;;;;;;;;;;;;17.74;45.91;102296.45;1648690;85;25497;-59
2022/10/05 08:37:34;;;;;;;;;;;;;;;17.72;45.00;102308.83;1678675;84;25745;-60
2022/10/05 08:40:20;;;;;;;;;;;;;;;17.56;44.49;102301.28;1682157;84;26087;-59
2022/10/05 08:43:02;;;;;;;;;;;;;;;17.42;44.67;102305.78;1692982;83;25477;-59
2022/10/05 08:46:01;;;;;;;;;;;;;;;17.47;44.60;102302.99;1677441;84;27479;-59
2022/10/05 08:48:53;;;;;;;;;;;;;;;17.71;45.20;102290.77;1677821;83;25777;-59
2022/10/05 08:51:31;;;;;;;;;;;;;;;18.09;45.02;102284.91;1678152;84;25674;-59
2022/10/05 08:54:27;;;;;;;;;;;;;;;18.48;44.29;102281.14;1677487;84;26155;-59
2022/10/05 08:57:00;;;;;;;;;;;;;;;18.76;43.58;102284.72;1672006;84;25734;-58
2022/10/05 08:59:36;;;;;;;;;;;;;;;19.22;42.92;102286.58;1651247;85;29690;-59
2022/10/05 09:02:29;;;;;;;;;;;;;;;19.36;41.64;102290.09;1683276;84;25812;-59
2022/10/05 09:05:14;;;;;;;;;;;;;;;19.12;41.25;102290.73;1729031;82;25741;-59
2022/10/05 09:07:44;;;;;;;;;;;;;;;18.68;42.24;102296.02;1697596;83;26117;-59
2022/10/05 09:10:31;;;;;;;;;;;;;;;18.97;42.47;102290.41;1677646;84;25749;-59
2022/10/05 09:13:10;;;;;;;;;;;;;;;19.86;39.88;102289.12;1687675;83;27486;-59
2022/10/05 09:15:58;;;;;;;;;;;;;;;20.68;39.71;102298.73;1677097;84;26634;-59
2022/10/05 09:18:34;;;;;;;;;;;;;;;21.22;36.37;102308.80;1682473;84;25702;-60
2022/10/05 09:21:19;;;;;;;;;;;;;;;22.18;37.98;102313.20;1682410;84;26085;-60
2022/10/05 09:23:48;;;;;;;;;;;;;;;22.56;33.10;102311.69;1676425;85;25970;-60
2022/10/05 09:26:46;;;;;;;;;;;;;;;22.81;31.62;102313.80;1676229;85;28615;-60
2022/10/05 09:29:38;;;;;;;;;;;;;;;23.65;33.52;102311.65;1675125;85;25507;-60
2022/10/05 09:32:29;;;;;;;;;;;;;;;24.47;31.66;102309.06;1686867;83;25793;-60
2022/10/05 09:35:31;;;;;;;;;;;;;;;25.38;31.34;102298.97;1680341;85;26099;-59
2022/10/05 09:38:05;;;;;;;;;;;;;;;26.06;29.23;102299.84;1681653;83;25846;-60
2022/10/05 09:40:47;;;;;;;;;;;;;;;26.79;27.03;102287.47;1684705;83;27517;-60
2022/10/05 09:43:39;;;;;;;;;;;;;;;26.90;28.00;102285.99;1680326;85;25808;-60
2022/10/05 09:46:33;;;;;;;;;;;;;;;26.63;26.57;102287.81;1677390;85;26443;-60
2022/10/05 09:49:18;;;;;;;;;;;;;;;25.67;27.18;102288.85;1676094;85;26095;-60
2022/10/05 09:51:50;;;;;;;;;;;;;;;25.02;29.43;102299.05;1675713;84;26350;-60
2022/10/05 09:54:39;;;;;;;;;;;;;;;25.06;30.11;102278.31;1676207;85;27476;-60
2022/10/05 09:57:09;;;;;;;;;;;;;;;24.86;29.72;102272.11;1675789;85;25786;-59
2022/10/05 09:59:40;;;;;;;;;;;;;;;23.87;30.79;102272.78;1676087;85;25780;-59
2022/10/05 10:02:15;;;;;;;;;;;;;;;23.20;31.47;102267.60;1676521;85;26343;-60
2022/10/05 10:05:04;;;;;;;;;;;;;;;22.20;32.21;102270.52;1675488;85;25548;-60
2022/10/05 10:07:49;;;;;;;;;;;;;;;21.73;33.04;102263.98;1676149;85;27494;-59
2022/10/05 10:10:27;;;;;;;;;;;;;;;23.07;32.62;102270.94;1675708;85;25914;-60
2022/10/05 10:13:12;;;;;;;;;;;;;;;24.50;31.79;102266.90;1675779;85;25631;-59
2022/10/05 10:16:03;;;;;;;;;;;;;;;25.83;28.90;102263.41;1696170;84;26109;-59
2022/10/05 10:19:06;;;;;;;;;;;;;;;26.35;26.82;102274.97;1695854;84;25645;-60
2022/10/05 10:21:49;;;;;;;;;;;;;;;25.51;27.47;102279.51;1696344;84;27841;-60
2022/10/05 10:24:34;;;;;;;;;;;;;;;24.52;29.09;102279.94;1696347;84;25767;-59
2022/10/05 10:27:10;;;;;;;;;;;;;;;23.90;30.53;102279.80;1696597;83;25795;-59
2022/10/05 10:29:49;;;;;;;;;;;;;;;23.42;30.51;102274.61;1698474;83;26172;-59
2022/10/05 10:32:37;;;;;;;;;;;;;;;22.83;30.88;102275.53;1715240;83;25754;-60
2022/10/05 10:35:31;;;;;;;;;;;;;;;21.88;31.06;102280.04;1684423;84;27656;-59
2022/10/05 10:38:10;;;;;;;;;;;;;;;22.96;31.28;102268.61;1685070;84;25905;-59
2022/10/05 10:40:43;;;;;;;;;;;;;;;24.01;30.03;102269.75;1678151;84;25695;-60
2022/10/05 10:43:45;;;;;;;;;;;;;;;24.84;30.37;102264.03;1688980;84;26823;-60
2022/10/05 10:46:38;;;;;;;;;;;;;;;24.89;29.33;102269.48;1704764;83;25719;-60
2022/10/05 10:49:42;;;;;;;;;;;;;;;24.42;30.73;102270.30;1704713;83;28168;-60
2022/10/05 10:52:20;;;;;;;;;;;;;;;24.00;31.07;102269.41;1704812;84;25719;-60
2022/10/05 10:54:56;;;;;;;;;;;;;;;24.97;28.93;102266.06;1704829;83;25681;-60
2022/10/05 10:57:29;;;;;;;;;;;;;;;25.92;29.32;102257.55;1704686;83;26162;-59
2022/10/05 11:00:10;;;;;;;;;;;;;;;26.68;26.49;102268.20;1705228;84;25447;-59
2022/10/05 11:02:43;;;;;;;;;;;;;;;27.21;25.01;102258.88;1695635;83;27604;-60
2022/10/05 11:05:16;;;;;;;;;;;;;;;27.34;23.96;102255.55;1704436;84;25749;-60
2022/10/05 11:07:56;;;;;;;;;;;;;;;27.22;25.25;102252.25;1705224;84;25746;-60
2022/10/05 11:10:38;;;;;;;;;;;;;;;27.83;25.02;102244.81;1704734;84;26321;-61
2022/10/05 11:13:34;;;;;;;;;;;;;;;27.94;23.52;102242.73;1704960;83;25789;-61
2022/10/05 11:16:16;;;;;;;;;;;;;;;27.61;22.98;102238.98;1705151;83;28605;-60
2022/10/05 11:18:52;;;;;;;;;;;;;;;27.90;24.13;102219.36;1705200;83;25635;-60
2022/10/05 11:21:35;;;;;;;;;;;;;;;28.29;23.79;102227.75;1709556;83;25784;-60
2022/10/05 11:24:37;;;;;;;;;;;;;;;28.11;23.03;102214.10;1703634;83;26117;-60
2022/10/05 11:27:18;;;;;;;;;;;;;;;28.14;23.22;102210.91;1700592;83;25751;-60
2022/10/05 11:30:21;;;;;;;;;;;;;;;27.96;21.97;102201.38;1702499;84;27518;-61
2022/10/05 11:33:13;;;;;;;;;;;;;;;27.17;23.53;102199.89;1709573;83;25643;-60
2022/10/05 11:35:51;;;;;;;;;;;;;;;26.53;23.86;102194.39;1708583;82;25786;-61
2022/10/05 11:38:41;;;;;;;;;;;;;;;26.63;24.76;102190.67;1708374;83;26140;-60
2022/10/05 11:41:21;;;;;;;;;;;;;;;27.03;25.05;102192.14;1701700;83;25728;-61
2022/10/05 11:44:04;;;;;;;;;;;;;;;27.13;24.28;102191.70;1701637;83;27560;-60
2022/10/05 11:46:39;;;;;;;;;;;;;;;26.30;23.96;102201.10;1683808;84;25709;-59
2022/10/05 11:49:41;;;;;;;;;;;;;;;25.92;25.03;102198.78;1712609;83;25769;-60
2022/10/05 11:52:20;;;;;;;;;;;;;;;25.83;25.14;102195.36;1712080;83;26121;-60
2022/10/05 11:55:16;;;;;;;;;;;;;;;25.91;25.31;102194.31;1701216;83;26117;-59
2022/10/05 11:57:54;;;;;;;;;;;;;;;25.96;25.96;102193.70;1701347;84;27721;-60
2022/10/05 12:00:39;;;;;;;;;;;;;;;26.20;25.66;102197.37;1701234;84;25772;-60
2022/10/05 12:03:34;;;;;;;;;;;;;;;26.33;24.59;102202.59;1701391;84;25748;-60
2022/10/05 12:06:22;;;;;;;;;;;;;;;26.24;24.72;102198.64;1701103;84;26030;-60
2022/10/05 12:09:12;;;;;;;;;;;;;;;26.43;23.92;102203.05;1701160;84;25763;-60
2022/10/05 12:12:07;;;;;;;;;;;;;;;26.31;24.30;102197.83;1701118;83;28310;-59
2022/10/05 12:14:44;;;;;;;;;;;;;;;26.53;25.00;102204.89;1701167;84;25496;-60
2022/10/05 12:17:20;;;;;;;;;;;;;;;26.79;24.67;102206.57;1700734;84;25695;-61
2022/10/05 12:19:53;;;;;;;;;;;;;;;26.94;24.60;102197.55;1700881;84;26755;-59
2022/10/05 12:22:31;;;;;;;;;;;;;;;27.40;25.08;102197.20;1705446;84;25450;-60
2022/10/05 12:25:02;;;;;;;;;;;;;;;28.12;23.96;102193.67;1675854;84;27606;-60
2022/10/05 12:27:32;;;;;;;;;;;;;;;28.75;23.29;102189.30;1665928;84;25780;-59
2022/10/05 12:30:12;;;;;;;;;;;;;;;29.07;22.89;102205.03;1681243;83;25750;-60
2022/10/05 12:32:42;;;;;;;;;;;;;;;29.21;22.20;102201.05;1716266;83;26138;-60
2022/10/05 12:35:33;;;;;;;;;;;;;;;29.48;22.04;102190.61;1715166;83;25699;-60
2022/10/05 12:38:12;;;;;;;;;;;;;;;30.14;20.63;102188.69;1716328;83;27457;-60
2022/10/05 12:40:51;;;;;;;;;;;;;;;30.59;20.20;102199.92;1714659;83;25981;-60
2022/10/05 12:43:42;;;;;;;;;;;;;;;30.60;19.95;102184.95;1715431;83;25802;-60
2022/10/05 12:46:41;;;;;;;;;;;;;;;31.02;19.44;102182.69;1656802;86;26055;-59
2022/10/05 12:49:34;;;;;;;;;;;;;;;30.90;20.19;102182.13;1656976;86;25820;-60
2022/10/05 12:52:03;;;;;;;;;;;;;;;31.27;19.99;102176.94;1700930;83;27493;-60
2022/10/05 12:54:51;;;;;;;;;;;;;;;31.97;19.34;102161.77;1716403;83;25810;-60
2022/10/05 12:57:27;;;;;;;;;;;;;;;32.29;18.48;102166.89;1716346;83;25787;-61
2022/10/05 13:00:07;;;;;;;;;;;;;;;32.62;19.47;102173.07;1716554;83;26099;-61
2022/10/05 13:02:45;;;;;;;;;;;;;;;32.78;18.56;102171.97;1716712;83;25772;-58
2022/10/05 13:05:30;;;;;;;;;;;;;;;32.95;18.41;102176.69;1716625;83;26872;-59
2022/10/05 13:08:09;;;;;;;;;;;;;;;33.52;18.25;102183.98;1716581;83;25799;-59
2022/10/05 13:10:42;;;;;;;;;;;;;;;34.36;17.63;102185.31;1716493;83;25786;-60
2022/10/05 13:13:18;;;;;;;;;;;;;;;34.39;16.07;102182.86;1716608;83;26045;-60
2022/10/05 13:16:03;;;;;;;;;;;;;;;34.77;16.32;102177.33;1716475;83;25762;-60
2022/10/05 13:18:33;;;;;;;;;;;;;;;35.18;16.26;102181.02;1716819;83;27689;-60
2022/10/05 13:21:11;;;;;;;;;;;;;;;35.64;16.52;102178.52;1707955;83;25716;-60
2022/10/05 13:23:50;;;;;;;;;;;;;;;36.23;15.43;102178.47;1698785;84;25498;-61
2022/10/05 13:26:20;;;;;;;;;;;;;;;36.33;15.30;102172.31;1659444;86;26078;-60
2022/10/05 13:29:22;;;;;;;;;;;;;;;36.45;15.63;102172.08;1659892;85;25961;-60
2022/10/05 13:31:59;;;;;;;;;;;;;;;36.91;15.57;102175.48;1633540;87;28221;-60
2022/10/05 13:34:32;;;;;;;;;;;;;;;37.31;14.84;102169.23;1634039;86;25772;-59
2022/10/05 13:37:17;;;;;;;;;;;;;;;37.51;15.15;102172.59;1629513;86;25513;-60
2022/10/05 13:39:59;;;;;;;;;;;;;;;37.99;14.69;102171.53;1692176;84;26094;-60
2022/10/05 13:42:36;;;;;;;;;;;;;;;38.15;14.61;102168.62;1706680;84;25763;-60
2022/10/05 13:45:23;;;;;;;;;;;;;;;38.49;14.89;102168.70;1686444;84;28348;-60
2022/10/05 13:47:53;;;;;;;;;;;;;;;38.83;13.99;102169.27;1706591;84;25774;-60